sensor_id;sensor_type;location;lat;lon;timestamp;P1;durP1;ratioP1;P2;durP2;ratioP2
81938;SDS011;71437;42.018;21.354;2023-08-20T00:01:06;29.88;;;15.52;;
81938;SDS011;71437;42.018;21.354;2023-08-20T00:03:33;27.65;;;16.67;;
81938;SDS011;71437;42.018;21.354;2023-08-20T00:05:59;30.50;;;13.75;;
81938;SDS011;71437;42.018;21.354;2023-08-20T00:08:26;27.67;;;14.25;;
81938;SDS011;71437;42.018;21.354;2023-08-20T00:10:52;29.80;;;14.25;;
81938;SDS011;71437;42.018;21.354;2023-08-20T00:13:18;27.50;;;15.02;;
81938;SDS011;71437;42.018;21.354;2023-08-20T00:15:44;30.08;;;15.52;;
81938;SDS011;71437;42.018;21.354;2023-08-20T00:18:10;32.85;;;15.80;;
81938;SDS011;71437;42.018;21.354;2023-08-20T00:20:37;25.15;;;12.88;;
81938;SDS011;71437;42.018;21.354;2023-08-20T00:23:03;24.88;;;14.50;;
81938;SDS011;71437;42.018;21.354;2023-08-20T00:25:30;22.42;;;12.20;;
81938;SDS011;71437;42.018;21.354;2023-08-20T00:27:56;27.38;;;14.40;;
81938;SDS011;71437;42.018;21.354;2023-08-20T00:30:22;21.90;;;13.60;;
81938;SDS011;71437;42.018;21.354;2023-08-20T00:32:48;23.50;;;12.95;;
81938;SDS011;71437;42.018;21.354;2023-08-20T00:35:14;34.22;;;13.68;;
81938;SDS011;71437;42.018;21.354;2023-08-20T00:37:41;22.48;;;13.23;;
81938;SDS011;71437;42.018;21.354;2023-08-20T00:40:07;30.50;;;13.57;;
81938;SDS011;71437;42.018;21.354;2023-08-20T00:42:34;25.15;;;12.95;;
81938;SDS011;71437;42.018;21.354;2023-08-20T00:45:01;30.02;;;14.32;;
81938;SDS011;71437;42.018;21.354;2023-08-20T00:47:28;24.90;;;12.63;;
81938;SDS011;71437;42.018;21.354;2023-08-20T00:49:54;25.00;;;13.32;;
81938;SDS011;71437;42.018;21.354;2023-08-20T00:52:20;29.58;;;13.70;;
81938;SDS011;71437;42.018;21.354;2023-08-20T00:54:47;26.30;;;14.30;;
81938;SDS011;71437;42.018;21.354;2023-08-20T00:57:13;27.67;;;13.02;;
81938;SDS011;71437;42.018;21.354;2023-08-20T00:59:42;28.17;;;13.15;;
81938;SDS011;71437;42.018;21.354;2023-08-20T01:02:09;27.95;;;13.23;;
81938;SDS011;71437;42.018;21.354;2023-08-20T01:04:36;26.08;;;12.75;;
81938;SDS011;71437;42.018;21.354;2023-08-20T01:12:07;23.88;;;12.25;;
81938;SDS011;71437;42.018;21.354;2023-08-20T01:14:34;26.02;;;13.75;;
81938;SDS011;71437;42.018;21.354;2023-08-20T01:17:00;26.35;;;13.40;;
81938;SDS011;71437;42.018;21.354;2023-08-20T01:19:27;22.20;;;12.52;;
81938;SDS011;71437;42.018;21.354;2023-08-20T01:29:34;29.05;;;12.32;;
81938;SDS011;71437;42.018;21.354;2023-08-20T01:32:00;23.77;;;12.45;;
81938;SDS011;71437;42.018;21.354;2023-08-20T01:34:28;23.25;;;12.30;;
81938;SDS011;71437;42.018;21.354;2023-08-20T01:36:54;23.98;;;12.90;;
81938;SDS011;71437;42.018;21.354;2023-08-20T01:39:20;22.63;;;12.77;;
81938;SDS011;71437;42.018;21.354;2023-08-20T01:41:47;21.45;;;12.45;;
81938;SDS011;71437;42.018;21.354;2023-08-20T01:44:13;21.77;;;12.00;;
81938;SDS011;71437;42.018;21.354;2023-08-20T01:46:39;20.63;;;11.20;;
81938;SDS011;71437;42.018;21.354;2023-08-20T01:49:05;37.85;;;12.48;;
81938;SDS011;71437;42.018;21.354;2023-08-20T01:51:31;23.83;;;12.70;;
81938;SDS011;71437;42.018;21.354;2023-08-20T01:53:58;17.73;;;11.65;;
81938;SDS011;71437;42.018;21.354;2023-08-20T01:56:24;22.85;;;12.65;;
81938;SDS011;71437;42.018;21.354;2023-08-20T01:58:50;28.30;;;13.20;;
81938;SDS011;71437;42.018;21.354;2023-08-20T02:01:16;24.83;;;12.18;;
81938;SDS011;71437;42.018;21.354;2023-08-20T02:03:43;20.40;;;11.95;;
81938;SDS011;71437;42.018;21.354;2023-08-20T02:06:09;23.15;;;11.48;;
81938;SDS011;71437;42.018;21.354;2023-08-20T02:08:35;21.25;;;12.15;;
81938;SDS011;71437;42.018;21.354;2023-08-20T02:11:02;23.80;;;12.20;;
81938;SDS011;71437;42.018;21.354;2023-08-20T02:13:28;21.77;;;11.60;;
81938;SDS011;71437;42.018;21.354;2023-08-20T02:15:58;21.55;;;12.85;;
81938;SDS011;71437;42.018;21.354;2023-08-20T02:18:24;20.15;;;12.27;;
81938;SDS011;71437;42.018;21.354;2023-08-20T02:20:50;24.95;;;12.48;;
81938;SDS011;71437;42.018;21.354;2023-08-20T02:23:17;23.38;;;11.57;;
81938;SDS011;71437;42.018;21.354;2023-08-20T02:25:43;19.58;;;11.43;;
81938;SDS011;71437;42.018;21.354;2023-08-20T02:28:09;18.13;;;11.85;;
81938;SDS011;71437;42.018;21.354;2023-08-20T02:30:42;22.30;;;12.65;;
81938;SDS011;71437;42.018;21.354;2023-08-20T02:33:09;25.23;;;12.13;;
81938;SDS011;71437;42.018;21.354;2023-08-20T02:35:35;23.17;;;11.88;;
81938;SDS011;71437;42.018;21.354;2023-08-20T02:38:02;20.05;;;11.80;;
81938;SDS011;71437;42.018;21.354;2023-08-20T02:40:28;20.20;;;11.85;;
81938;SDS011;71437;42.018;21.354;2023-08-20T02:42:54;23.25;;;13.02;;
81938;SDS011;71437;42.018;21.354;2023-08-20T02:45:20;25.73;;;12.75;;
81938;SDS011;71437;42.018;21.354;2023-08-20T02:47:46;23.13;;;12.85;;
81938;SDS011;71437;42.018;21.354;2023-08-20T02:50:12;23.60;;;11.88;;
81938;SDS011;71437;42.018;21.354;2023-08-20T02:52:39;26.38;;;14.38;;
81938;SDS011;71437;42.018;21.354;2023-08-20T02:55:05;26.10;;;11.73;;
81938;SDS011;71437;42.018;21.354;2023-08-20T02:57:31;24.17;;;12.70;;
81938;SDS011;71437;42.018;21.354;2023-08-20T02:59:57;27.40;;;13.23;;
81938;SDS011;71437;42.018;21.354;2023-08-20T03:02:23;24.73;;;12.85;;
81938;SDS011;71437;42.018;21.354;2023-08-20T03:04:49;21.58;;;11.65;;
81938;SDS011;71437;42.018;21.354;2023-08-20T03:07:15;22.38;;;13.05;;
81938;SDS011;71437;42.018;21.354;2023-08-20T03:09:42;23.25;;;12.75;;
81938;SDS011;71437;42.018;21.354;2023-08-20T03:12:08;30.10;;;13.10;;
81938;SDS011;71437;42.018;21.354;2023-08-20T03:14:34;19.10;;;11.35;;
81938;SDS011;71437;42.018;21.354;2023-08-20T03:17:00;19.40;;;12.50;;
81938;SDS011;71437;42.018;21.354;2023-08-20T03:19:33;26.83;;;13.02;;
81938;SDS011;71437;42.018;21.354;2023-08-20T03:22:02;20.60;;;11.95;;
81938;SDS011;71437;42.018;21.354;2023-08-20T03:24:29;25.88;;;11.93;;
81938;SDS011;71437;42.018;21.354;2023-08-20T03:26:55;18.63;;;10.80;;
81938;SDS011;71437;42.018;21.354;2023-08-20T03:29:21;22.02;;;11.20;;
81938;SDS011;71437;42.018;21.354;2023-08-20T03:31:47;18.65;;;11.45;;
81938;SDS011;71437;42.018;21.354;2023-08-20T03:34:13;22.83;;;11.18;;
81938;SDS011;71437;42.018;21.354;2023-08-20T03:36:39;26.13;;;12.30;;
81938;SDS011;71437;42.018;21.354;2023-08-20T03:39:06;20.60;;;12.15;;
81938;SDS011;71437;42.018;21.354;2023-08-20T03:41:32;21.73;;;10.82;;
81938;SDS011;71437;42.018;21.354;2023-08-20T03:43:58;21.40;;;11.82;;
81938;SDS011;71437;42.018;21.354;2023-08-20T03:46:24;21.13;;;11.52;;
81938;SDS011;71437;42.018;21.354;2023-08-20T03:48:50;19.83;;;11.45;;
81938;SDS011;71437;42.018;21.354;2023-08-20T03:51:16;21.45;;;10.32;;
81938;SDS011;71437;42.018;21.354;2023-08-20T03:53:42;16.20;;;10.60;;
81938;SDS011;71437;42.018;21.354;2023-08-20T03:56:09;22.35;;;11.75;;
81938;SDS011;71437;42.018;21.354;2023-08-20T03:58:35;17.98;;;10.10;;
81938;SDS011;71437;42.018;21.354;2023-08-20T04:01:01;19.75;;;10.85;;
81938;SDS011;71437;42.018;21.354;2023-08-20T04:03:28;19.50;;;10.05;;
81938;SDS011;71437;42.018;21.354;2023-08-20T04:05:55;18.48;;;11.00;;
81938;SDS011;71437;42.018;21.354;2023-08-20T04:08:21;16.92;;;10.25;;
81938;SDS011;71437;42.018;21.354;2023-08-20T04:10:47;24.80;;;11.55;;
81938;SDS011;71437;42.018;21.354;2023-08-20T04:13:13;21.90;;;10.80;;
81938;SDS011;71437;42.018;21.354;2023-08-20T04:15:41;18.05;;;9.70;;
81938;SDS011;71437;42.018;21.354;2023-08-20T04:18:07;20.45;;;9.60;;
81938;SDS011;71437;42.018;21.354;2023-08-20T04:20:33;20.90;;;10.27;;
81938;SDS011;71437;42.018;21.354;2023-08-20T04:23:00;17.75;;;9.93;;
81938;SDS011;71437;42.018;21.354;2023-08-20T04:25:26;20.98;;;10.23;;
81938;SDS011;71437;42.018;21.354;2023-08-20T04:27:52;18.15;;;9.55;;
81938;SDS011;71437;42.018;21.354;2023-08-20T04:30:18;17.77;;;10.32;;
81938;SDS011;71437;42.018;21.354;2023-08-20T04:32:45;19.52;;;10.30;;
81938;SDS011;71437;42.018;21.354;2023-08-20T04:35:11;18.45;;;9.98;;
81938;SDS011;71437;42.018;21.354;2023-08-20T04:37:37;19.60;;;10.35;;
81938;SDS011;71437;42.018;21.354;2023-08-20T04:40:03;19.35;;;10.27;;
81938;SDS011;71437;42.018;21.354;2023-08-20T04:42:31;17.13;;;9.02;;
81938;SDS011;71437;42.018;21.354;2023-08-20T04:44:57;15.93;;;9.43;;
81938;SDS011;71437;42.018;21.354;2023-08-20T04:47:23;21.08;;;9.65;;
81938;SDS011;71437;42.018;21.354;2023-08-20T04:49:49;16.90;;;9.57;;
81938;SDS011;71437;42.018;21.354;2023-08-20T04:52:16;19.25;;;10.38;;
81938;SDS011;71437;42.018;21.354;2023-08-20T04:54:42;18.40;;;11.15;;
81938;SDS011;71437;42.018;21.354;2023-08-20T04:57:08;23.05;;;11.15;;
81938;SDS011;71437;42.018;21.354;2023-08-20T04:59:34;19.02;;;11.38;;
81938;SDS011;71437;42.018;21.354;2023-08-20T05:02:00;21.23;;;12.52;;
81938;SDS011;71437;42.018;21.354;2023-08-20T05:04:26;23.63;;;10.88;;
81938;SDS011;71437;42.018;21.354;2023-08-20T05:06:53;20.52;;;11.27;;
81938;SDS011;71437;42.018;21.354;2023-08-20T05:09:19;27.65;;;10.88;;
81938;SDS011;71437;42.018;21.354;2023-08-20T05:11:45;23.05;;;11.63;;
81938;SDS011;71437;42.018;21.354;2023-08-20T05:14:12;20.48;;;9.80;;
81938;SDS011;71437;42.018;21.354;2023-08-20T05:16:38;17.23;;;10.13;;
81938;SDS011;71437;42.018;21.354;2023-08-20T05:19:04;20.98;;;10.57;;
81938;SDS011;71437;42.018;21.354;2023-08-20T05:21:30;20.75;;;11.43;;
81938;SDS011;71437;42.018;21.354;2023-08-20T05:23:56;28.92;;;11.02;;
81938;SDS011;71437;42.018;21.354;2023-08-20T05:26:23;21.67;;;10.05;;
81938;SDS011;71437;42.018;21.354;2023-08-20T05:28:49;25.85;;;11.93;;
81938;SDS011;71437;42.018;21.354;2023-08-20T05:31:15;22.08;;;11.02;;
81938;SDS011;71437;42.018;21.354;2023-08-20T05:33:41;23.88;;;11.50;;
81938;SDS011;71437;42.018;21.354;2023-08-20T05:36:07;20.85;;;10.07;;
81938;SDS011;71437;42.018;21.354;2023-08-20T05:38:33;27.35;;;11.02;;
81938;SDS011;71437;42.018;21.354;2023-08-20T05:40:59;21.75;;;11.07;;
81938;SDS011;71437;42.018;21.354;2023-08-20T05:43:25;28.17;;;11.40;;
81938;SDS011;71437;42.018;21.354;2023-08-20T05:45:51;24.55;;;10.60;;
81938;SDS011;71437;42.018;21.354;2023-08-20T05:48:17;18.38;;;10.63;;
81938;SDS011;71437;42.018;21.354;2023-08-20T05:50:44;20.90;;;10.82;;
81938;SDS011;71437;42.018;21.354;2023-08-20T05:53:10;19.30;;;10.65;;
81938;SDS011;71437;42.018;21.354;2023-08-20T05:55:37;20.95;;;10.57;;
81938;SDS011;71437;42.018;21.354;2023-08-20T05:58:04;22.48;;;12.27;;
81938;SDS011;71437;42.018;21.354;2023-08-20T06:00:30;23.55;;;12.27;;
81938;SDS011;71437;42.018;21.354;2023-08-20T06:02:56;28.98;;;13.77;;
81938;SDS011;71437;42.018;21.354;2023-08-20T06:05:22;28.80;;;15.38;;
81938;SDS011;71437;42.018;21.354;2023-08-20T06:07:48;32.63;;;17.33;;
81938;SDS011;71437;42.018;21.354;2023-08-20T06:10:15;29.85;;;17.85;;
81938;SDS011;71437;42.018;21.354;2023-08-20T06:12:41;34.22;;;18.08;;
81938;SDS011;71437;42.018;21.354;2023-08-20T06:15:07;29.98;;;15.90;;
81938;SDS011;71437;42.018;21.354;2023-08-20T06:17:33;31.98;;;17.27;;
81938;SDS011;71437;42.018;21.354;2023-08-20T06:19:59;24.65;;;16.48;;
81938;SDS011;71437;42.018;21.354;2023-08-20T06:22:25;28.58;;;14.15;;
81938;SDS011;71437;42.018;21.354;2023-08-20T06:24:51;27.05;;;14.65;;
81938;SDS011;71437;42.018;21.354;2023-08-20T06:27:17;25.13;;;15.13;;
81938;SDS011;71437;42.018;21.354;2023-08-20T06:29:43;26.58;;;14.82;;
81938;SDS011;71437;42.018;21.354;2023-08-20T06:32:10;20.05;;;12.35;;
81938;SDS011;71437;42.018;21.354;2023-08-20T06:34:36;15.65;;;9.38;;
81938;SDS011;71437;42.018;21.354;2023-08-20T06:37:02;14.82;;;10.32;;
81938;SDS011;71437;42.018;21.354;2023-08-20T06:39:28;16.17;;;9.65;;
81938;SDS011;71437;42.018;21.354;2023-08-20T06:41:55;16.55;;;8.90;;
81938;SDS011;71437;42.018;21.354;2023-08-20T06:44:21;11.15;;;7.68;;
81938;SDS011;71437;42.018;21.354;2023-08-20T06:46:47;16.30;;;9.57;;
81938;SDS011;71437;42.018;21.354;2023-08-20T06:49:13;18.52;;;10.43;;
81938;SDS011;71437;42.018;21.354;2023-08-20T06:51:39;17.35;;;9.93;;
81938;SDS011;71437;42.018;21.354;2023-08-20T06:54:05;17.73;;;11.05;;
81938;SDS011;71437;42.018;21.354;2023-08-20T06:56:31;16.08;;;9.80;;
81938;SDS011;71437;42.018;21.354;2023-08-20T06:58:58;21.80;;;9.52;;
81938;SDS011;71437;42.018;21.354;2023-08-20T07:01:24;16.73;;;9.05;;
81938;SDS011;71437;42.018;21.354;2023-08-20T07:03:50;20.85;;;10.70;;
81938;SDS011;71437;42.018;21.354;2023-08-20T07:06:16;18.80;;;10.63;;
81938;SDS011;71437;42.018;21.354;2023-08-20T07:08:43;19.67;;;11.13;;
81938;SDS011;71437;42.018;21.354;2023-08-20T07:11:09;22.02;;;10.95;;
81938;SDS011;71437;42.018;21.354;2023-08-20T07:13:36;23.33;;;12.23;;
81938;SDS011;71437;42.018;21.354;2023-08-20T07:16:02;19.40;;;10.05;;
81938;SDS011;71437;42.018;21.354;2023-08-20T07:18:28;16.48;;;9.25;;
81938;SDS011;71437;42.018;21.354;2023-08-20T07:20:54;22.90;;;10.07;;
81938;SDS011;71437;42.018;21.354;2023-08-20T07:23:20;16.20;;;8.60;;
81938;SDS011;71437;42.018;21.354;2023-08-20T07:25:47;18.33;;;10.05;;
81938;SDS011;71437;42.018;21.354;2023-08-20T07:28:16;16.13;;;9.88;;
81938;SDS011;71437;42.018;21.354;2023-08-20T07:30:51;17.48;;;9.63;;
81938;SDS011;71437;42.018;21.354;2023-08-20T07:33:17;23.70;;;9.95;;
81938;SDS011;71437;42.018;21.354;2023-08-20T07:35:43;16.60;;;9.70;;
81938;SDS011;71437;42.018;21.354;2023-08-20T07:38:09;18.20;;;9.65;;
81938;SDS011;71437;42.018;21.354;2023-08-20T07:40:35;15.45;;;9.50;;
81938;SDS011;71437;42.018;21.354;2023-08-20T07:43:02;19.25;;;10.02;;
81938;SDS011;71437;42.018;21.354;2023-08-20T07:45:28;19.17;;;9.75;;
81938;SDS011;71437;42.018;21.354;2023-08-20T07:47:54;24.42;;;10.05;;
81938;SDS011;71437;42.018;21.354;2023-08-20T07:50:20;16.60;;;9.00;;
81938;SDS011;71437;42.018;21.354;2023-08-20T07:52:46;16.77;;;9.23;;
81938;SDS011;71437;42.018;21.354;2023-08-20T07:55:12;17.02;;;9.40;;
81938;SDS011;71437;42.018;21.354;2023-08-20T07:57:38;15.02;;;9.25;;
81938;SDS011;71437;42.018;21.354;2023-08-20T08:00:05;15.73;;;8.68;;
81938;SDS011;71437;42.018;21.354;2023-08-20T08:02:31;14.40;;;8.93;;
81938;SDS011;71437;42.018;21.354;2023-08-20T08:04:57;16.65;;;9.65;;
81938;SDS011;71437;42.018;21.354;2023-08-20T08:07:23;18.15;;;9.10;;
81938;SDS011;71437;42.018;21.354;2023-08-20T08:09:49;20.77;;;10.07;;
81938;SDS011;71437;42.018;21.354;2023-08-20T08:12:15;17.55;;;9.75;;
81938;SDS011;71437;42.018;21.354;2023-08-20T08:14:42;17.05;;;9.68;;
81938;SDS011;71437;42.018;21.354;2023-08-20T08:17:08;13.88;;;8.45;;
81938;SDS011;71437;42.018;21.354;2023-08-20T08:19:34;14.98;;;8.63;;
81938;SDS011;71437;42.018;21.354;2023-08-20T08:22:00;17.55;;;9.45;;
81938;SDS011;71437;42.018;21.354;2023-08-20T08:24:26;13.70;;;8.45;;
81938;SDS011;71437;42.018;21.354;2023-08-20T08:26:52;16.73;;;8.93;;
81938;SDS011;71437;42.018;21.354;2023-08-20T08:29:18;18.48;;;9.57;;
81938;SDS011;71437;42.018;21.354;2023-08-20T08:31:44;15.25;;;10.25;;
81938;SDS011;71437;42.018;21.354;2023-08-20T08:34:10;15.60;;;10.40;;
81938;SDS011;71437;42.018;21.354;2023-08-20T08:36:36;20.10;;;10.38;;
81938;SDS011;71437;42.018;21.354;2023-08-20T08:39:02;16.60;;;9.65;;
81938;SDS011;71437;42.018;21.354;2023-08-20T08:41:28;15.30;;;9.00;;
81938;SDS011;71437;42.018;21.354;2023-08-20T08:43:56;15.27;;;8.13;;
81938;SDS011;71437;42.018;21.354;2023-08-20T08:46:22;20.15;;;10.82;;
81938;SDS011;71437;42.018;21.354;2023-08-20T08:48:49;18.42;;;9.63;;
81938;SDS011;71437;42.018;21.354;2023-08-20T08:51:16;14.55;;;8.98;;
81938;SDS011;71437;42.018;21.354;2023-08-20T08:53:42;17.33;;;9.27;;
81938;SDS011;71437;42.018;21.354;2023-08-20T08:56:10;17.13;;;9.02;;
81938;SDS011;71437;42.018;21.354;2023-08-20T08:58:36;16.63;;;8.43;;
81938;SDS011;71437;42.018;21.354;2023-08-20T09:01:02;15.68;;;8.27;;
81938;SDS011;71437;42.018;21.354;2023-08-20T09:03:28;15.20;;;9.25;;
81938;SDS011;71437;42.018;21.354;2023-08-20T09:05:55;18.85;;;9.45;;
81938;SDS011;71437;42.018;21.354;2023-08-20T09:08:30;17.15;;;9.20;;
81938;SDS011;71437;42.018;21.354;2023-08-20T09:10:57;15.20;;;9.05;;
81938;SDS011;71437;42.018;21.354;2023-08-20T09:13:24;23.08;;;13.75;;
81938;SDS011;71437;42.018;21.354;2023-08-20T09:15:54;21.63;;;11.10;;
81938;SDS011;71437;42.018;21.354;2023-08-20T09:18:20;14.55;;;8.93;;
81938;SDS011;71437;42.018;21.354;2023-08-20T09:20:47;15.90;;;9.65;;
81938;SDS011;71437;42.018;21.354;2023-08-20T09:23:16;16.08;;;8.65;;
81938;SDS011;71437;42.018;21.354;2023-08-20T09:25:43;15.35;;;9.27;;
81938;SDS011;71437;42.018;21.354;2023-08-20T09:28:10;16.13;;;8.98;;
81938;SDS011;71437;42.018;21.354;2023-08-20T09:30:36;13.32;;;8.38;;
81938;SDS011;71437;42.018;21.354;2023-08-20T09:33:07;14.63;;;9.45;;
81938;SDS011;71437;42.018;21.354;2023-08-20T09:35:33;17.00;;;9.07;;
81938;SDS011;71437;42.018;21.354;2023-08-20T09:37:59;17.17;;;8.60;;
81938;SDS011;71437;42.018;21.354;2023-08-20T09:40:26;14.73;;;9.05;;
81938;SDS011;71437;42.018;21.354;2023-08-20T09:42:56;14.95;;;9.35;;
81938;SDS011;71437;42.018;21.354;2023-08-20T09:47:49;15.35;;;9.15;;
81938;SDS011;71437;42.018;21.354;2023-08-20T09:50:17;15.50;;;9.13;;
81938;SDS011;71437;42.018;21.354;2023-08-20T09:52:46;14.40;;;8.48;;
81938;SDS011;71437;42.018;21.354;2023-08-20T09:55:16;18.92;;;9.27;;
81938;SDS011;71437;42.018;21.354;2023-08-20T09:57:43;17.13;;;8.60;;
81938;SDS011;71437;42.018;21.354;2023-08-20T10:00:09;14.93;;;8.63;;
81938;SDS011;71437;42.018;21.354;2023-08-20T10:02:36;16.98;;;9.63;;
81938;SDS011;71437;42.018;21.354;2023-08-20T10:05:03;23.38;;;13.55;;
81938;SDS011;71437;42.018;21.354;2023-08-20T10:07:30;13.77;;;8.43;;
81938;SDS011;71437;42.018;21.354;2023-08-20T10:09:56;23.02;;;8.65;;
81938;SDS011;71437;42.018;21.354;2023-08-20T10:12:25;17.23;;;8.95;;
81938;SDS011;71437;42.018;21.354;2023-08-20T10:14:52;18.88;;;8.63;;
81938;SDS011;71437;42.018;21.354;2023-08-20T10:17:18;19.10;;;9.65;;
81938;SDS011;71437;42.018;21.354;2023-08-20T10:19:44;21.65;;;8.93;;
81938;SDS011;71437;42.018;21.354;2023-08-20T10:22:10;17.83;;;8.63;;
81938;SDS011;71437;42.018;21.354;2023-08-20T10:24:54;16.02;;;8.77;;
81938;SDS011;71437;42.018;21.354;2023-08-20T10:27:26;25.35;;;13.68;;
81938;SDS011;71437;42.018;21.354;2023-08-20T10:29:53;16.65;;;9.20;;
81938;SDS011;71437;42.018;21.354;2023-08-20T10:32:20;17.95;;;7.97;;
81938;SDS011;71437;42.018;21.354;2023-08-20T10:34:50;15.50;;;8.43;;
81938;SDS011;71437;42.018;21.354;2023-08-20T10:37:25;18.30;;;9.32;;
81938;SDS011;71437;42.018;21.354;2023-08-20T10:39:55;14.07;;;8.43;;
81938;SDS011;71437;42.018;21.354;2023-08-20T10:42:26;13.52;;;8.48;;
81938;SDS011;71437;42.018;21.354;2023-08-20T10:44:56;13.82;;;8.13;;
81938;SDS011;71437;42.018;21.354;2023-08-20T10:47:23;13.57;;;8.18;;
81938;SDS011;71437;42.018;21.354;2023-08-20T10:49:53;15.68;;;8.13;;
81938;SDS011;71437;42.018;21.354;2023-08-20T10:52:22;15.10;;;7.72;;
81938;SDS011;71437;42.018;21.354;2023-08-20T10:54:51;15.10;;;9.25;;
81938;SDS011;71437;42.018;21.354;2023-08-20T10:57:18;17.08;;;8.27;;
81938;SDS011;71437;42.018;21.354;2023-08-20T10:59:55;14.38;;;8.10;;
81938;SDS011;71437;42.018;21.354;2023-08-20T11:02:23;17.02;;;8.65;;
81938;SDS011;71437;42.018;21.354;2023-08-20T11:04:49;13.48;;;8.25;;
81938;SDS011;71437;42.018;21.354;2023-08-20T11:07:17;10.82;;;7.50;;
81938;SDS011;71437;42.018;21.354;2023-08-20T11:09:44;13.95;;;7.90;;
81938;SDS011;71437;42.018;21.354;2023-08-20T11:12:14;16.92;;;8.48;;
81938;SDS011;71437;42.018;21.354;2023-08-20T11:14:40;15.88;;;8.07;;
81938;SDS011;71437;42.018;21.354;2023-08-20T11:17:07;14.57;;;9.10;;
81938;SDS011;71437;42.018;21.354;2023-08-20T11:19:33;13.38;;;7.90;;
81938;SDS011;71437;42.018;21.354;2023-08-20T11:21:59;14.35;;;8.48;;
81938;SDS011;71437;42.018;21.354;2023-08-20T11:24:29;12.82;;;8.80;;
81938;SDS011;71437;42.018;21.354;2023-08-20T11:29:21;15.52;;;7.20;;
81938;SDS011;71437;42.018;21.354;2023-08-20T11:31:48;15.95;;;8.65;;
81938;SDS011;71437;42.018;21.354;2023-08-20T11:34:14;24.45;;;7.85;;
81938;SDS011;71437;42.018;21.354;2023-08-20T11:36:40;12.73;;;8.70;;
81938;SDS011;71437;42.018;21.354;2023-08-20T11:39:07;13.25;;;8.15;;
81938;SDS011;71437;42.018;21.354;2023-08-20T11:41:35;14.82;;;8.95;;
81938;SDS011;71437;42.018;21.354;2023-08-20T11:44:02;15.15;;;8.43;;
81938;SDS011;71437;42.018;21.354;2023-08-20T11:46:28;11.38;;;8.07;;
81938;SDS011;71437;42.018;21.354;2023-08-20T11:49:07;12.70;;;7.95;;
81938;SDS011;71437;42.018;21.354;2023-08-20T11:51:37;15.45;;;8.10;;
81938;SDS011;71437;42.018;21.354;2023-08-20T11:54:07;15.00;;;8.00;;
81938;SDS011;71437;42.018;21.354;2023-08-20T11:56:33;16.80;;;8.73;;
81938;SDS011;71437;42.018;21.354;2023-08-20T11:59:00;12.48;;;7.55;;
81938;SDS011;71437;42.018;21.354;2023-08-20T12:01:33;13.02;;;7.05;;
81938;SDS011;71437;42.018;21.354;2023-08-20T12:04:06;13.55;;;8.55;;
81938;SDS011;71437;42.018;21.354;2023-08-20T12:06:33;12.52;;;7.93;;
81938;SDS011;71437;42.018;21.354;2023-08-20T12:09:00;14.52;;;8.52;;
81938;SDS011;71437;42.018;21.354;2023-08-20T12:11:29;17.23;;;8.98;;
81938;SDS011;71437;42.018;21.354;2023-08-20T12:13:56;17.48;;;8.45;;
81938;SDS011;71437;42.018;21.354;2023-08-20T12:16:22;19.85;;;8.25;;
81938;SDS011;71437;42.018;21.354;2023-08-20T12:18:51;14.02;;;8.13;;
81938;SDS011;71437;42.018;21.354;2023-08-20T12:21:18;15.55;;;8.65;;
81938;SDS011;71437;42.018;21.354;2023-08-20T12:23:44;12.93;;;7.80;;
81938;SDS011;71437;42.018;21.354;2023-08-20T12:26:10;17.45;;;8.00;;
81938;SDS011;71437;42.018;21.354;2023-08-20T12:28:36;11.80;;;7.18;;
81938;SDS011;71437;42.018;21.354;2023-08-20T12:31:03;16.50;;;7.53;;
81938;SDS011;71437;42.018;21.354;2023-08-20T12:33:29;14.70;;;7.93;;
81938;SDS011;71437;42.018;21.354;2023-08-20T12:35:56;16.02;;;9.90;;
81938;SDS011;71437;42.018;21.354;2023-08-20T12:38:22;13.57;;;7.50;;
81938;SDS011;71437;42.018;21.354;2023-08-20T12:40:48;13.82;;;8.27;;
81938;SDS011;71437;42.018;21.354;2023-08-20T12:43:14;14.85;;;8.02;;
81938;SDS011;71437;42.018;21.354;2023-08-20T12:45:40;11.20;;;7.35;;
81938;SDS011;71437;42.018;21.354;2023-08-20T12:48:07;13.07;;;8.23;;
81938;SDS011;71437;42.018;21.354;2023-08-20T12:50:34;12.70;;;9.05;;
81938;SDS011;71437;42.018;21.354;2023-08-20T12:53:01;12.13;;;8.20;;
81938;SDS011;71437;42.018;21.354;2023-08-20T12:55:27;22.23;;;9.63;;
81938;SDS011;71437;42.018;21.354;2023-08-20T12:57:54;14.98;;;8.05;;
81938;SDS011;71437;42.018;21.354;2023-08-20T13:00:21;17.17;;;8.80;;
81938;SDS011;71437;42.018;21.354;2023-08-20T13:02:47;13.40;;;8.68;;
81938;SDS011;71437;42.018;21.354;2023-08-20T13:05:14;16.92;;;9.20;;
81938;SDS011;71437;42.018;21.354;2023-08-20T13:07:40;17.50;;;9.35;;
81938;SDS011;71437;42.018;21.354;2023-08-20T13:10:07;16.40;;;9.65;;
81938;SDS011;71437;42.018;21.354;2023-08-20T13:12:36;15.85;;;9.50;;
81938;SDS011;71437;42.018;21.354;2023-08-20T13:15:02;17.85;;;11.07;;
81938;SDS011;71437;42.018;21.354;2023-08-20T13:17:29;15.68;;;9.98;;
81938;SDS011;71437;42.018;21.354;2023-08-20T13:19:55;15.43;;;9.65;;
81938;SDS011;71437;42.018;21.354;2023-08-20T13:22:22;16.42;;;9.85;;
81938;SDS011;71437;42.018;21.354;2023-08-20T13:24:48;16.20;;;10.57;;
81938;SDS011;71437;42.018;21.354;2023-08-20T13:27:14;17.25;;;12.00;;
81938;SDS011;71437;42.018;21.354;2023-08-20T13:29:40;18.40;;;10.43;;
81938;SDS011;71437;42.018;21.354;2023-08-20T13:32:07;16.55;;;9.13;;
81938;SDS011;71437;42.018;21.354;2023-08-20T13:34:33;15.25;;;10.45;;
81938;SDS011;71437;42.018;21.354;2023-08-20T13:36:59;21.15;;;10.40;;
81938;SDS011;71437;42.018;21.354;2023-08-20T13:39:25;25.48;;;10.88;;
81938;SDS011;71437;42.018;21.354;2023-08-20T13:41:51;19.55;;;11.63;;
81938;SDS011;71437;42.018;21.354;2023-08-20T13:44:19;15.95;;;10.80;;
81938;SDS011;71437;42.018;21.354;2023-08-20T13:46:45;20.23;;;10.80;;
81938;SDS011;71437;42.018;21.354;2023-08-20T13:49:12;15.60;;;10.38;;
81938;SDS011;71437;42.018;21.354;2023-08-20T13:51:38;17.80;;;10.30;;
81938;SDS011;71437;42.018;21.354;2023-08-20T13:54:05;15.63;;;10.40;;
81938;SDS011;71437;42.018;21.354;2023-08-20T13:56:31;18.40;;;10.25;;
81938;SDS011;71437;42.018;21.354;2023-08-20T13:58:57;14.50;;;10.02;;
81938;SDS011;71437;42.018;21.354;2023-08-20T14:01:23;19.42;;;9.68;;
81938;SDS011;71437;42.018;21.354;2023-08-20T14:03:49;14.98;;;9.80;;
81938;SDS011;71437;42.018;21.354;2023-08-20T14:06:16;21.52;;;11.52;;
81938;SDS011;71437;42.018;21.354;2023-08-20T14:08:43;14.88;;;10.05;;
81938;SDS011;71437;42.018;21.354;2023-08-20T14:11:10;19.10;;;10.68;;
81938;SDS011;71437;42.018;21.354;2023-08-20T14:13:36;38.35;;;11.32;;
81938;SDS011;71437;42.018;21.354;2023-08-20T14:16:02;18.70;;;9.85;;
81938;SDS011;71437;42.018;21.354;2023-08-20T14:18:28;15.05;;;9.60;;
81938;SDS011;71437;42.018;21.354;2023-08-20T14:20:55;27.77;;;11.20;;
81938;SDS011;71437;42.018;21.354;2023-08-20T14:23:21;18.77;;;11.15;;
81938;SDS011;71437;42.018;21.354;2023-08-20T14:25:47;20.20;;;11.35;;
81938;SDS011;71437;42.018;21.354;2023-08-20T14:28:13;18.55;;;10.77;;